sensor_id;sensor_type;location;lat;lon;timestamp;P1;durP1;ratioP1;P2;durP2;ratioP2
15528;SDS011;7866;52.280;9.500;2023-04-24T00:01:13;0.63;;;0.63;;
15528;SDS011;7866;52.280;9.500;2023-04-24T00:06:16;0.73;;;0.73;;
15528;SDS011;7866;52.280;9.500;2023-04-24T00:11:18;1.10;;;1.00;;
15528;SDS011;7866;52.280;9.500;2023-04-24T00:16:20;1.30;;;0.73;;
15528;SDS011;7866;52.280;9.500;2023-04-24T00:21:23;0.67;;;0.67;;
15528;SDS011;7866;52.280;9.500;2023-04-24T00:26:25;0.70;;;0.70;;
15528;SDS011;7866;52.280;9.500;2023-04-24T00:31:27;0.77;;;0.73;;
15528;SDS011;7866;52.280;9.500;2023-04-24T00:36:30;0.83;;;0.83;;
15528;SDS011;7866;52.280;9.500;2023-04-24T00:41:32;0.60;;;0.60;;
15528;SDS011;7866;52.280;9.500;2023-04-24T00:46:34;1.80;;;0.77;;
15528;SDS011;7866;52.280;9.500;2023-04-24T00:51:38;0.70;;;0.70;;
15528;SDS011;7866;52.280;9.500;2023-04-24T00:56:40;0.70;;;0.70;;
15528;SDS011;7866;52.280;9.500;2023-04-24T01:01:43;0.80;;;0.80;;
15528;SDS011;7866;52.280;9.500;2023-04-24T01:06:47;1.53;;;1.00;;
15528;SDS011;7866;52.280;9.500;2023-04-24T01:11:51;0.60;;;0.60;;
15528;SDS011;7866;52.280;9.500;2023-04-24T01:16:53;0.90;;;0.63;;
15528;SDS011;7866;52.280;9.500;2023-04-24T01:21:58;0.70;;;0.70;;
15528;SDS011;7866;52.280;9.500;2023-04-24T01:27:02;0.70;;;0.70;;
15528;SDS011;7866;52.280;9.500;2023-04-24T01:32:04;0.50;;;0.50;;
15528;SDS011;7866;52.280;9.500;2023-04-24T01:37:06;0.83;;;0.83;;
15528;SDS011;7866;52.280;9.500;2023-04-24T01:42:09;1.70;;;0.73;;
15528;SDS011;7866;52.280;9.500;2023-04-24T01:47:10;2.00;;;0.70;;
15528;SDS011;7866;52.280;9.500;2023-04-24T01:52:13;0.60;;;0.60;;
15528;SDS011;7866;52.280;9.500;2023-04-24T01:57:17;1.07;;;0.97;;
15528;SDS011;7866;52.280;9.500;2023-04-24T02:02:19;0.63;;;0.63;;
15528;SDS011;7866;52.280;9.500;2023-04-24T02:07:21;0.87;;;0.87;;
15528;SDS011;7866;52.280;9.500;2023-04-24T02:12:24;0.70;;;0.70;;
15528;SDS011;7866;52.280;9.500;2023-04-24T02:17:26;0.70;;;0.70;;
15528;SDS011;7866;52.280;9.500;2023-04-24T02:22:27;0.73;;;0.73;;
15528;SDS011;7866;52.280;9.500;2023-04-24T02:27:30;0.70;;;0.70;;
15528;SDS011;7866;52.280;9.500;2023-04-24T02:32:32;0.50;;;0.50;;
15528;SDS011;7866;52.280;9.500;2023-04-24T02:37:34;0.70;;;0.70;;
15528;SDS011;7866;52.280;9.500;2023-04-24T02:42:37;0.70;;;0.70;;
15528;SDS011;7866;52.280;9.500;2023-04-24T02:47:38;0.73;;;0.73;;
15528;SDS011;7866;52.280;9.500;2023-04-24T02:52:40;0.97;;;0.60;;
15528;SDS011;7866;52.280;9.500;2023-04-24T02:57:43;0.80;;;0.80;;
15528;SDS011;7866;52.280;9.500;2023-04-24T03:02:44;0.60;;;0.60;;
15528;SDS011;7866;52.280;9.500;2023-04-24T03:07:46;0.73;;;0.73;;
15528;SDS011;7866;52.280;9.500;2023-04-24T03:12:49;0.73;;;0.73;;
15528;SDS011;7866;52.280;9.500;2023-04-24T03:17:51;1.03;;;0.90;;
15528;SDS011;7866;52.280;9.500;2023-04-24T03:22:53;0.70;;;0.70;;
15528;SDS011;7866;52.280;9.500;2023-04-24T03:27:56;1.37;;;0.60;;
15528;SDS011;7866;52.280;9.500;2023-04-24T03:32:58;1.80;;;0.80;;
15528;SDS011;7866;52.280;9.500;2023-04-24T03:37:59;0.60;;;0.60;;
15528;SDS011;7866;52.280;9.500;2023-04-24T03:43:02;1.23;;;1.20;;
15528;SDS011;7866;52.280;9.500;2023-04-24T03:48:04;0.87;;;0.53;;
15528;SDS011;7866;52.280;9.500;2023-04-24T03:53:06;1.03;;;0.87;;
15528;SDS011;7866;52.280;9.500;2023-04-24T03:58:09;0.60;;;0.60;;
15528;SDS011;7866;52.280;9.500;2023-04-24T04:03:11;0.97;;;0.70;;
15528;SDS011;7866;52.280;9.500;2023-04-24T04:08:13;2.43;;;0.87;;
15528;SDS011;7866;52.280;9.500;2023-04-24T04:13:16;0.77;;;0.60;;
15528;SDS011;7866;52.280;9.500;2023-04-24T04:18:17;0.83;;;0.80;;
15528;SDS011;7866;52.280;9.500;2023-04-24T04:23:19;1.07;;;0.77;;
15528;SDS011;7866;52.280;9.500;2023-04-24T04:28:22;0.60;;;0.60;;
15528;SDS011;7866;52.280;9.500;2023-04-24T04:33:24;0.53;;;0.53;;
15528;SDS011;7866;52.280;9.500;2023-04-24T04:38:26;0.53;;;0.53;;
15528;SDS011;7866;52.280;9.500;2023-04-24T04:43:31;0.63;;;0.63;;
15528;SDS011;7866;52.280;9.500;2023-04-24T04:48:34;0.43;;;0.43;;
15528;SDS011;7866;52.280;9.500;2023-04-24T04:53:35;0.97;;;0.70;;
15528;SDS011;7866;52.280;9.500;2023-04-24T04:58:38;1.30;;;0.60;;
15528;SDS011;7866;52.280;9.500;2023-04-24T05:03:58;2.07;;;1.00;;
15528;SDS011;7866;52.280;9.500;2023-04-24T05:08:59;0.87;;;0.83;;
15528;SDS011;7866;52.280;9.500;2023-04-24T05:14:03;0.93;;;0.93;;
15528;SDS011;7866;52.280;9.500;2023-04-24T05:19:04;0.77;;;0.77;;
15528;SDS011;7866;52.280;9.500;2023-04-24T05:24:06;1.90;;;1.27;;
15528;SDS011;7866;52.280;9.500;2023-04-24T05:29:09;1.37;;;1.00;;
15528;SDS011;7866;52.280;9.500;2023-04-24T05:34:11;1.10;;;1.00;;
15528;SDS011;7866;52.280;9.500;2023-04-24T05:39:14;1.33;;;1.30;;
15528;SDS011;7866;52.280;9.500;2023-04-24T05:44:17;2.87;;;1.20;;
15528;SDS011;7866;52.280;9.500;2023-04-24T05:49:18;1.30;;;1.20;;
15528;SDS011;7866;52.280;9.500;2023-04-24T05:54:20;1.30;;;1.20;;
15528;SDS011;7866;52.280;9.500;2023-04-24T05:59:23;1.10;;;1.10;;
15528;SDS011;7866;52.280;9.500;2023-04-24T06:04:25;1.40;;;1.30;;
15528;SDS011;7866;52.280;9.500;2023-04-24T06:09:27;1.70;;;1.60;;
15528;SDS011;7866;52.280;9.500;2023-04-24T06:14:30;2.33;;;1.80;;
15528;SDS011;7866;52.280;9.500;2023-04-24T06:19:31;1.93;;;1.83;;
15528;SDS011;7866;52.280;9.500;2023-04-24T06:24:33;3.73;;;2.30;;
15528;SDS011;7866;52.280;9.500;2023-04-24T06:29:36;3.37;;;3.03;;
15528;SDS011;7866;52.280;9.500;2023-04-24T06:34:38;2.43;;;2.27;;
15528;SDS011;7866;52.280;9.500;2023-04-24T06:39:40;3.47;;;3.00;;
15528;SDS011;7866;52.280;9.500;2023-04-24T06:44:43;3.23;;;3.00;;
15528;SDS011;7866;52.280;9.500;2023-04-24T06:49:45;3.30;;;3.00;;
15528;SDS011;7866;52.280;9.500;2023-04-24T06:54:46;4.87;;;3.40;;
15528;SDS011;7866;52.280;9.500;2023-04-24T06:59:49;3.87;;;3.47;;
15528;SDS011;7866;52.280;9.500;2023-04-24T07:04:51;3.70;;;3.40;;
15528;SDS011;7866;52.280;9.500;2023-04-24T07:09:52;4.20;;;3.80;;
15528;SDS011;7866;52.280;9.500;2023-04-24T07:14:57;4.03;;;3.63;;
15528;SDS011;7866;52.280;9.500;2023-04-24T07:19:59;4.20;;;3.80;;
15528;SDS011;7866;52.280;9.500;2023-04-24T07:25:01;5.60;;;4.27;;
15528;SDS011;7866;52.280;9.500;2023-04-24T07:30:05;3.83;;;3.53;;
15528;SDS011;7866;52.280;9.500;2023-04-24T07:35:07;7.63;;;5.23;;
15528;SDS011;7866;52.280;9.500;2023-04-24T07:40:10;6.07;;;5.27;;
15528;SDS011;7866;52.280;9.500;2023-04-24T07:45:14;5.73;;;5.23;;
15528;SDS011;7866;52.280;9.500;2023-04-24T07:50:16;4.83;;;4.43;;
15528;SDS011;7866;52.280;9.500;2023-04-24T07:55:17;6.13;;;5.53;;
15528;SDS011;7866;52.280;9.500;2023-04-24T08:00:20;5.13;;;4.63;;
15528;SDS011;7866;52.280;9.500;2023-04-24T08:05:22;6.70;;;4.60;;
15528;SDS011;7866;52.280;9.500;2023-04-24T08:10:25;5.57;;;5.07;;
15528;SDS011;7866;52.280;9.500;2023-04-24T08:15:28;5.53;;;5.03;;
15528;SDS011;7866;52.280;9.500;2023-04-24T08:20:30;5.90;;;5.30;;
15528;SDS011;7866;52.280;9.500;2023-04-24T08:25:31;5.43;;;4.93;;
15528;SDS011;7866;52.280;9.500;2023-04-24T08:30:36;5.40;;;5.00;;
15528;SDS011;7866;52.280;9.500;2023-04-24T08:35:38;5.10;;;4.70;;
15528;SDS011;7866;52.280;9.500;2023-04-24T08:40:40;6.27;;;4.33;;
15528;SDS011;7866;52.280;9.500;2023-04-24T08:45:43;5.87;;;4.57;;
15528;SDS011;7866;52.280;9.500;2023-04-24T08:50:45;4.30;;;4.00;;
15528;SDS011;7866;52.280;9.500;2023-04-24T08:55:47;3.60;;;3.30;;
15528;SDS011;7866;52.280;9.500;2023-04-24T09:00:50;4.07;;;3.40;;
15528;SDS011;7866;52.280;9.500;2023-04-24T09:05:52;3.83;;;3.53;;
15528;SDS011;7866;52.280;9.500;2023-04-24T09:10:56;4.73;;;3.67;;
15528;SDS011;7866;52.280;9.500;2023-04-24T09:16:03;3.67;;;3.40;;
15528;SDS011;7866;52.280;9.500;2023-04-24T09:21:06;4.23;;;3.40;;
15528;SDS011;7866;52.280;9.500;2023-04-24T09:26:09;3.27;;;3.07;;
15528;SDS011;7866;52.280;9.500;2023-04-24T09:31:13;4.37;;;3.73;;
15528;SDS011;7866;52.280;9.500;2023-04-24T09:36:18;3.60;;;3.30;;
15528;SDS011;7866;52.280;9.500;2023-04-24T09:41:19;3.43;;;2.97;;
15528;SDS011;7866;52.280;9.500;2023-04-24T09:46:28;3.13;;;2.90;;
15528;SDS011;7866;52.280;9.500;2023-04-24T09:51:34;3.23;;;3.00;;
15528;SDS011;7866;52.280;9.500;2023-04-24T09:56:37;3.77;;;3.20;;
15528;SDS011;7866;52.280;9.500;2023-04-24T10:01:45;3.03;;;2.83;;
15528;SDS011;7866;52.280;9.500;2023-04-24T10:06:49;2.67;;;2.47;;
15528;SDS011;7866;52.280;9.500;2023-04-24T10:11:53;2.80;;;2.60;;
15528;SDS011;7866;52.280;9.500;2023-04-24T10:16:56;2.17;;;2.07;;
15528;SDS011;7866;52.280;9.500;2023-04-24T10:21:59;2.20;;;2.10;;
15528;SDS011;7866;52.280;9.500;2023-04-24T10:27:02;2.17;;;2.00;;
15528;SDS011;7866;52.280;9.500;2023-04-24T10:32:07;1.73;;;1.63;;
15528;SDS011;7866;52.280;9.500;2023-04-24T10:37:10;2.27;;;2.13;;
15528;SDS011;7866;52.280;9.500;2023-04-24T10:42:14;1.70;;;1.60;;
15528;SDS011;7866;52.280;9.500;2023-04-24T10:47:17;2.10;;;2.00;;
15528;SDS011;7866;52.280;9.500;2023-04-24T10:52:19;2.10;;;2.00;;
15528;SDS011;7866;52.280;9.500;2023-04-24T10:57:27;2.17;;;1.97;;
15528;SDS011;7866;52.280;9.500;2023-04-24T11:02:36;2.20;;;2.03;;
15528;SDS011;7866;52.280;9.500;2023-04-24T11:13:14;1.70;;;1.60;;
15528;SDS011;7866;52.280;9.500;2023-04-24T11:18:17;1.30;;;1.30;;
15528;SDS011;7866;52.280;9.500;2023-04-24T11:23:19;1.07;;;1.07;;
15528;SDS011;7866;52.280;9.500;2023-04-24T11:28:21;1.63;;;1.40;;
15528;SDS011;7866;52.280;9.500;2023-04-24T11:33:27;1.40;;;1.30;;
15528;SDS011;7866;52.280;9.500;2023-04-24T11:38:28;1.00;;;0.90;;
15528;SDS011;7866;52.280;9.500;2023-04-24T11:43:30;0.63;;;0.60;;
15528;SDS011;7866;52.280;9.500;2023-04-24T11:48:35;0.60;;;0.60;;
15528;SDS011;7866;52.280;9.500;2023-04-24T11:53:40;0.50;;;0.50;;
15528;SDS011;7866;52.280;9.500;2023-04-24T11:58:41;0.63;;;0.63;;
15528;SDS011;7866;52.280;9.500;2023-04-24T12:03:48;0.53;;;0.53;;
15528;SDS011;7866;52.280;9.500;2023-04-24T12:08:51;0.80;;;0.57;;
15528;SDS011;7866;52.280;9.500;2023-04-24T12:13:55;1.70;;;0.90;;
15528;SDS011;7866;52.280;9.500;2023-04-24T12:18:58;0.60;;;0.60;;
15528;SDS011;7866;52.280;9.500;2023-04-24T12:24:01;0.73;;;0.73;;
15528;SDS011;7866;52.280;9.500;2023-04-24T12:29:02;1.20;;;1.20;;
15528;SDS011;7866;52.280;9.500;2023-04-24T12:34:07;1.10;;;1.10;;
15528;SDS011;7866;52.280;9.500;2023-04-24T12:39:18;1.10;;;1.10;;
15528;SDS011;7866;52.280;9.500;2023-04-24T12:44:30;1.00;;;1.00;;
15528;SDS011;7866;52.280;9.500;2023-04-24T12:49:35;1.10;;;1.10;;
15528;SDS011;7866;52.280;9.500;2023-04-24T12:54:37;1.37;;;0.90;;
15528;SDS011;7866;52.280;9.500;2023-04-24T12:59:39;0.93;;;0.93;;
15528;SDS011;7866;52.280;9.500;2023-04-24T13:04:42;0.90;;;0.90;;
15528;SDS011;7866;52.280;9.500;2023-04-24T13:09:45;1.10;;;1.00;;
15528;SDS011;7866;52.280;9.500;2023-04-24T13:14:48;0.77;;;0.77;;
15528;SDS011;7866;52.280;9.500;2023-04-24T13:19:54;0.80;;;0.80;;
15528;SDS011;7866;52.280;9.500;2023-04-24T13:24:56;0.83;;;0.83;;
15528;SDS011;7866;52.280;9.500;2023-04-24T13:29:58;1.00;;;1.00;;
15528;SDS011;7866;52.280;9.500;2023-04-24T13:35:01;1.00;;;1.00;;
15528;SDS011;7866;52.280;9.500;2023-04-24T13:40:03;1.60;;;0.60;;
15528;SDS011;7866;52.280;9.500;2023-04-24T13:45:07;0.50;;;0.50;;
15528;SDS011;7866;52.280;9.500;2023-04-24T13:50:11;0.93;;;0.50;;
15528;SDS011;7866;52.280;9.500;2023-04-24T13:55:13;0.80;;;0.60;;
15528;SDS011;7866;52.280;9.500;2023-04-24T14:00:15;0.80;;;0.80;;
15528;SDS011;7866;52.280;9.500;2023-04-24T14:05:19;1.27;;;0.83;;
15528;SDS011;7866;52.280;9.500;2023-04-24T14:10:22;0.73;;;0.73;;
15528;SDS011;7866;52.280;9.500;2023-04-24T14:15:23;0.97;;;0.97;;
15528;SDS011;7866;52.280;9.500;2023-04-24T14:20:26;1.70;;;1.30;;
15528;SDS011;7866;52.280;9.500;2023-04-24T14:25:28;3.07;;;1.60;;
15528;SDS011;7866;52.280;9.500;2023-04-24T14:30:30;4.37;;;1.70;;
15528;SDS011;7866;52.280;9.500;2023-04-24T14:35:33;5.40;;;3.07;;
15528;SDS011;7866;52.280;9.500;2023-04-24T14:40:35;3.87;;;2.17;;
15528;SDS011;7866;52.280;9.500;2023-04-24T14:45:37;2.03;;;1.90;;
15528;SDS011;7866;52.280;9.500;2023-04-24T14:50:42;2.30;;;1.80;;
15528;SDS011;7866;52.280;9.500;2023-04-24T14:55:43;1.80;;;1.70;;
15528;SDS011;7866;52.280;9.500;2023-04-24T15:00:45;2.50;;;1.90;;
15528;SDS011;7866;52.280;9.500;2023-04-24T15:05:51;5.57;;;2.93;;
15528;SDS011;7866;52.280;9.500;2023-04-24T15:10:53;3.53;;;2.20;;
15528;SDS011;7866;52.280;9.500;2023-04-24T15:15:54;2.67;;;2.47;;
15528;SDS011;7866;52.280;9.500;2023-04-24T15:20:58;3.80;;;2.50;;
15528;SDS011;7866;52.280;9.500;2023-04-24T15:25:59;3.63;;;3.20;;
15528;SDS011;7866;52.280;9.500;2023-04-24T15:31:01;4.47;;;2.57;;
15528;SDS011;7866;52.280;9.500;2023-04-24T15:36:04;7.13;;;3.00;;
15528;SDS011;7866;52.280;9.500;2023-04-24T15:41:06;5.60;;;2.90;;
15528;SDS011;7866;52.280;9.500;2023-04-24T15:46:25;6.27;;;3.10;;
15528;SDS011;7866;52.280;9.500;2023-04-24T15:51:28;5.77;;;3.67;;
15528;SDS011;7866;52.280;9.500;2023-04-24T15:56:30;8.93;;;4.70;;
15528;SDS011;7866;52.280;9.500;2023-04-24T16:01:32;6.50;;;3.23;;
15528;SDS011;7866;52.280;9.500;2023-04-24T16:06:35;3.83;;;2.90;;
15528;SDS011;7866;52.280;9.500;2023-04-24T16:11:37;6.20;;;3.40;;
15528;SDS011;7866;52.280;9.500;2023-04-24T16:16:38;4.47;;;3.10;;
15528;SDS011;7866;52.280;9.500;2023-04-24T16:21:41;5.13;;;3.47;;
15528;SDS011;7866;52.280;9.500;2023-04-24T16:26:43;4.10;;;3.10;;
15528;SDS011;7866;52.280;9.500;2023-04-24T16:31:45;5.80;;;3.13;;
15528;SDS011;7866;52.280;9.500;2023-04-24T16:36:47;3.23;;;2.80;;
15528;SDS011;7866;52.280;9.500;2023-04-24T16:41:49;6.67;;;2.80;;
15528;SDS011;7866;52.280;9.500;2023-04-24T16:46:52;4.70;;;2.30;;
15528;SDS011;7866;52.280;9.500;2023-04-24T16:51:55;2.80;;;2.60;;
15528;SDS011;7866;52.280;9.500;2023-04-24T16:56:56;3.57;;;2.80;;
15528;SDS011;7866;52.280;9.500;2023-04-24T17:01:58;5.20;;;2.80;;
15528;SDS011;7866;52.280;9.500;2023-04-24T17:07:01;3.20;;;2.90;;
15528;SDS011;7866;52.280;9.500;2023-04-24T17:12:03;2.30;;;2.10;;
15528;SDS011;7866;52.280;9.500;2023-04-24T17:17:06;2.57;;;2.23;;
15528;SDS011;7866;52.280;9.500;2023-04-24T17:22:09;2.43;;;1.80;;
15528;SDS011;7866;52.280;9.500;2023-04-24T17:27:11;1.77;;;1.67;;
15528;SDS011;7866;52.280;9.500;2023-04-24T17:32:13;1.70;;;1.60;;
15528;SDS011;7866;52.280;9.500;2023-04-24T17:37:16;2.13;;;1.70;;
15528;SDS011;7866;52.280;9.500;2023-04-24T17:42:22;10.43;;;6.63;;
15528;SDS011;7866;52.280;9.500;2023-04-24T17:47:23;3.07;;;1.90;;
15528;SDS011;7866;52.280;9.500;2023-04-24T17:52:27;2.43;;;2.23;;
15528;SDS011;7866;52.280;9.500;2023-04-24T17:57:30;1.73;;;1.63;;
15528;SDS011;7866;52.280;9.500;2023-04-24T18:02:32;3.07;;;1.80;;
15528;SDS011;7866;52.280;9.500;2023-04-24T18:07:36;2.97;;;1.80;;
15528;SDS011;7866;52.280;9.500;2023-04-24T18:12:38;2.00;;;1.80;;
15528;SDS011;7866;52.280;9.500;2023-04-24T18:17:40;3.33;;;1.87;;
15528;SDS011;7866;52.280;9.500;2023-04-24T18:22:43;1.90;;;1.67;;
15528;SDS011;7866;52.280;9.500;2023-04-24T18:27:45;2.63;;;1.73;;
15528;SDS011;7866;52.280;9.500;2023-04-24T18:32:47;2.10;;;1.90;;
15528;SDS011;7866;52.280;9.500;2023-04-24T18:37:50;2.20;;;1.73;;
15528;SDS011;7866;52.280;9.500;2023-04-24T18:42:52;2.10;;;1.40;;
15528;SDS011;7866;52.280;9.500;2023-04-24T18:47:55;2.70;;;1.60;;
15528;SDS011;7866;52.280;9.500;2023-04-24T18:52:58;1.80;;;1.70;;
15528;SDS011;7866;52.280;9.500;2023-04-24T18:57:59;2.40;;;1.50;;
15528;SDS011;7866;52.280;9.500;2023-04-24T19:03:01;2.60;;;1.70;;
15528;SDS011;7866;52.280;9.500;2023-04-24T19:08:04;2.77;;;2.00;;
15528;SDS011;7866;52.280;9.500;2023-04-24T19:13:06;2.93;;;2.20;;
15528;SDS011;7866;52.280;9.500;2023-04-24T19:18:07;3.23;;;2.00;;
15528;SDS011;7866;52.280;9.500;2023-04-24T19:23:10;4.87;;;2.43;;
15528;SDS011;7866;52.280;9.500;2023-04-24T19:28:12;6.10;;;2.30;;
15528;SDS011;7866;52.280;9.500;2023-04-24T19:33:14;5.40;;;2.20;;
15528;SDS011;7866;52.280;9.500;2023-04-24T19:38:17;3.23;;;2.33;;
15528;SDS011;7866;52.280;9.500;2023-04-24T19:43:19;5.47;;;2.57;;
15528;SDS011;7866;52.280;9.500;2023-04-24T19:48:20;5.13;;;2.63;;
15528;SDS011;7866;52.280;9.500;2023-04-24T19:53:23;3.50;;;1.90;;
15528;SDS011;7866;52.280;9.500;2023-04-24T19:58:25;3.53;;;2.13;;
15528;SDS011;7866;52.280;9.500;2023-04-24T20:03:29;3.33;;;2.17;;
15528;SDS011;7866;52.280;9.500;2023-04-24T20:08:32;6.57;;;2.50;;
15528;SDS011;7866;52.280;9.500;2023-04-24T20:13:37;7.20;;;3.17;;
15528;SDS011;7866;52.280;9.500;2023-04-24T20:18:39;3.40;;;2.57;;
15528;SDS011;7866;52.280;9.500;2023-04-24T20:23:42;4.67;;;2.40;;
15528;SDS011;7866;52.280;9.500;2023-04-24T20:28:44;7.70;;;2.83;;
15528;SDS011;7866;52.280;9.500;2023-04-24T20:33:45;6.20;;;2.70;;
15528;SDS011;7866;52.280;9.500;2023-04-24T20:38:48;4.30;;;2.60;;
15528;SDS011;7866;52.280;9.500;2023-04-24T20:43:50;6.93;;;2.53;;
15528;SDS011;7866;52.280;9.500;2023-04-24T20:48:52;4.33;;;2.60;;
15528;SDS011;7866;52.280;9.500;2023-04-24T20:53:55;7.67;;;2.97;;
15528;SDS011;7866;52.280;9.500;2023-04-24T20:58:57;6.07;;;2.83;;
15528;SDS011;7866;52.280;9.500;2023-04-24T21:03:58;4.67;;;2.40;;
15528;SDS011;7866;52.280;9.500;2023-04-24T21:09:02;4.33;;;2.73;;
15528;SDS011;7866;52.280;9.500;2023-04-24T21:14:04;5.43;;;3.00;;
15528;SDS011;7866;52.280;9.500;2023-04-24T21:19:05;4.50;;;2.80;;
15528;SDS011;7866;52.280;9.500;2023-04-24T21:24:08;6.57;;;2.80;;
15528;SDS011;7866;52.280;9.500;2023-04-24T21:29:10;5.30;;;2.60;;
15528;SDS011;7866;52.280;9.500;2023-04-24T21:34:12;5.17;;;2.73;;
15528;SDS011;7866;52.280;9.500;2023-04-24T21:39:15;7.73;;;3.20;;
15528;SDS011;7866;52.280;9.500;2023-04-24T21:44:17;6.53;;;3.23;;
15528;SDS011;7866;52.280;9.500;2023-04-24T21:49:19;5.57;;;3.20;;
15528;SDS011;7866;52.280;9.500;2023-04-24T21:54:22;6.40;;;3.30;;
15528;SDS011;7866;52.280;9.500;2023-04-24T21:59:23;5.20;;;3.40;;
15528;SDS011;7866;52.280;9.500;2023-04-24T22:04:25;6.47;;;3.60;;
15528;SDS011;7866;52.280;9.500;2023-04-24T22:09:28;6.47;;;3.23;;
15528;SDS011;7866;52.280;9.500;2023-04-24T22:14:30;9.07;;;3.73;;
15528;SDS011;7866;52.280;9.500;2023-04-24T22:19:32;4.83;;;3.40;;
15528;SDS011;7866;52.280;9.500;2023-04-24T22:30:31;7.60;;;3.33;;
15528;SDS011;7866;52.280;9.500;2023-04-24T22:35:33;7.03;;;3.23;;
15528;SDS011;7866;52.280;9.500;2023-04-24T22:46:34;8.20;;;4.00;;
15528;SDS011;7866;52.280;9.500;2023-04-24T22:51:36;6.90;;;4.03;;
15528;SDS011;7866;52.280;9.500;2023-04-24T22:56:39;6.33;;;3.67;;
15528;SDS011;7866;52.280;9.500;2023-04-24T23:01:42;7.73;;;3.90;;
15528;SDS011;7866;52.280;9.500;2023-04-24T23:06:44;6.60;;;3.93;;
15528;SDS011;7866;52.280;9.500;2023-04-24T23:11:46;7.23;;;3.93;;
15528;SDS011;7866;52.280;9.500;2023-04-24T23:16:49;12.43;;;4.40;;
15528;SDS011;7866;52.280;9.500;2023-04-24T23:21:50;7.43;;;3.93;;
15528;SDS011;7866;52.280;9.500;2023-04-24T23:26:52;7.63;;;4.10;;
15528;SDS011;7866;52.280;9.500;2023-04-24T23:31:55;6.60;;;3.80;;
15528;SDS011;7866;52.280;9.500;2023-04-24T23:36:56;6.37;;;3.77;;
15528;SDS011;7866;52.280;9.500;2023-04-24T23:41:58;11.47;;;3.80;;
15528;SDS011;7866;52.280;9.500;2023-04-24T23:47:03;7.23;;;4.03;;
15528;SDS011;7866;52.280;9.500;2023-04-24T23:52:04;12.17;;;4.47;;
15528;SDS011;7866;52.280;9.500;2023-04-24T23:57:06;6.37;;;3.83;;
